createdAt,value
2023-04-10T00:00:53.147Z,19.90
2023-04-10T00:03:20.907Z,19.35
2023-04-10T00:05:49.999Z,20.05
2023-04-10T00:08:17.628Z,20.25
2023-04-10T00:10:45.241Z,20.02
2023-04-10T00:13:12.952Z,20.58
2023-04-10T00:15:40.706Z,21.42
2023-04-10T00:18:08.538Z,20.23
2023-04-10T00:20:36.326Z,19.08
2023-04-10T00:23:05.394Z,20.95
2023-04-10T00:25:33.046Z,19.60
2023-04-10T00:28:00.715Z,20.27
2023-04-10T00:30:28.339Z,20.15
2023-04-10T00:32:56.023Z,20.30
2023-04-10T00:35:23.804Z,20.42
2023-04-10T00:37:51.473Z,19.92
2023-04-10T00:40:20.587Z,20.10
2023-04-10T00:42:48.199Z,19.15
2023-04-10T00:45:15.837Z,20.42
2023-04-10T00:47:43.512Z,21.58
2023-04-10T00:50:12.041Z,19.30
2023-04-10T00:52:39.838Z,19.42
2023-04-10T00:55:09.070Z,19.52
2023-04-10T00:57:38.862Z,19.40
2023-04-10T01:00:08.134Z,18.75
2023-04-10T01:02:35.891Z,19.05
2023-04-10T01:05:03.734Z,20.98
2023-04-10T01:07:44.891Z,19.88
2023-04-10T01:10:16.931Z,20.98
2023-04-10T01:12:55.916Z,20.52
2023-04-10T01:15:26.541Z,21.30
2023-04-10T01:17:59.981Z,21.48
2023-04-10T01:20:30.582Z,19.20
2023-04-10T01:23:14.751Z,20.30
2023-04-10T01:25:47.091Z,19.10
2023-04-10T01:28:39.098Z,19.75
2023-04-10T01:31:09.924Z,19.17
2023-04-10T01:33:42.928Z,20.20
2023-04-10T01:36:13.006Z,17.88
2023-04-10T01:38:44.316Z,18.73
2023-04-10T01:41:12.259Z,18.48
2023-04-10T01:43:42.833Z,19.33
2023-04-10T01:46:12.283Z,18.30
2023-04-10T01:48:40.668Z,18.92
2023-04-10T01:51:10.366Z,18.60
2023-04-10T01:53:39.737Z,20.17
2023-04-10T01:56:09.981Z,19.85
2023-04-10T01:58:45.469Z,18.88
2023-04-10T02:01:29.162Z,20.50
2023-04-10T02:03:58.167Z,18.58
2023-04-10T02:06:35.724Z,18.95
2023-04-10T02:09:11.573Z,18.90
2023-04-10T02:11:44.677Z,20.02
2023-04-10T02:14:18.561Z,18.65
2023-04-10T02:16:47.039Z,18.25
2023-04-10T02:19:16.422Z,18.67
2023-04-10T02:21:45.828Z,18.27
2023-04-10T02:24:13.552Z,18.88
2023-04-10T02:26:47.817Z,18.60
2023-04-10T02:29:16.872Z,18.58
2023-04-10T02:31:45.365Z,19.83
2023-04-10T02:34:13.577Z,19.08
2023-04-10T02:36:41.229Z,18.92
2023-04-10T02:39:11.092Z,19.17
2023-04-10T02:41:47.447Z,18.63
2023-04-10T02:44:16.713Z,18.52
2023-04-10T02:46:44.916Z,18.52
2023-04-10T02:49:13.994Z,18.20
2023-04-10T02:51:41.750Z,20.10
2023-04-10T02:54:09.444Z,19.02
2023-04-10T02:56:38.410Z,18.65
2023-04-10T02:59:06.059Z,18.17
2023-04-10T03:01:36.115Z,18.10
2023-04-10T03:04:03.995Z,18.05
2023-04-10T03:06:36.926Z,18.23
2023-04-10T03:09:04.739Z,19.77
2023-04-10T03:11:34.229Z,19.08
2023-04-10T03:14:01.837Z,18.17
2023-04-10T03:16:29.529Z,17.67
2023-04-10T03:18:59.439Z,18.98
2023-04-10T03:21:27.531Z,18.48
2023-04-10T03:23:55.590Z,18.90
2023-04-10T03:26:23.992Z,19.00
2023-04-10T03:28:52.236Z,19.33
2023-04-10T03:31:19.956Z,18.77
2023-04-10T03:33:47.668Z,18.63
2023-04-10T03:36:16.886Z,17.77
2023-04-10T03:38:44.883Z,18.02
2023-04-10T03:41:12.488Z,19.58
2023-04-10T03:43:41.169Z,18.20
2023-04-10T03:46:09.418Z,19.17
2023-04-10T03:48:42.687Z,19.17
2023-04-10T03:51:11.264Z,17.52
2023-04-10T03:53:40.312Z,18.60
2023-04-10T03:56:13.246Z,19.17
2023-04-10T03:58:41.491Z,18.08
2023-04-10T04:01:12.437Z,19.88
2023-04-10T04:03:56.831Z,18.02
2023-04-10T04:06:48.672Z,18.85
2023-04-10T04:09:36.179Z,18.25
2023-04-10T04:12:18.101Z,18.58
2023-04-10T04:14:59.237Z,18.77
2023-04-10T04:17:40.613Z,18.35
2023-04-10T04:20:09.441Z,18.55
2023-04-10T04:22:52.349Z,19.70
2023-04-10T04:25:47.487Z,19.38
2023-04-10T04:28:41.390Z,19.55
2023-04-10T04:31:21.812Z,17.75
2023-04-10T04:34:08.990Z,18.63
2023-04-10T04:36:36.648Z,19.15
2023-04-10T04:39:33.742Z,18.90
2023-04-10T04:42:12.709Z,19.50
2023-04-10T04:45:02.610Z,17.83
2023-04-10T04:47:39.024Z,17.75
2023-04-10T04:50:16.572Z,17.77
2023-04-10T04:52:50.028Z,18.92
2023-04-10T04:55:36.431Z,19.20
2023-04-10T04:58:17.106Z,18.77
2023-04-10T05:01:03.365Z,19.17
2023-04-10T05:03:53.814Z,18.17
2023-04-10T05:06:54.586Z,18.67
2023-04-10T05:09:42.716Z,18.23
2023-04-10T05:12:23.027Z,18.17
2023-04-10T05:15:07.210Z,18.50
2023-04-10T05:17:46.020Z,18.83
2023-04-10T05:20:40.498Z,17.20
2023-04-10T05:23:19.565Z,18.00
2023-04-10T05:26:06.403Z,17.83
2023-04-10T05:28:53.287Z,19.55
2023-04-10T05:31:33.632Z,18.88
2023-04-10T05:34:21.863Z,17.98
2023-04-10T05:37:12.821Z,18.17
2023-04-10T05:39:50.376Z,17.98
2023-04-10T05:42:27.056Z,18.90
2023-04-10T05:45:08.694Z,18.23
2023-04-10T05:47:51.693Z,18.33
2023-04-10T05:50:28.611Z,18.30
2023-04-10T05:53:31.282Z,19.10
2023-04-10T05:56:12.672Z,17.38
2023-04-10T05:58:48.139Z,18.85
2023-04-10T06:01:27.238Z,18.50
2023-04-10T06:04:03.944Z,18.20
2023-04-10T06:06:33.102Z,17.85
2023-04-10T06:09:00.992Z,18.80
2023-04-10T06:11:29.110Z,18.38
2023-04-10T06:13:58.523Z,19.08
2023-04-10T06:16:38.787Z,18.58
2023-04-10T06:19:07.962Z,19.40
2023-04-10T06:21:37.130Z,19.95
2023-04-10T06:24:05.108Z,19.13
2023-04-10T06:26:32.788Z,17.80
2023-04-10T06:29:01.458Z,18.38
2023-04-10T06:31:32.213Z,17.15
2023-04-10T06:33:59.987Z,19.00
2023-04-10T06:36:35.964Z,18.77
2023-04-10T06:39:06.898Z,18.02
2023-04-10T06:41:34.821Z,18.65
2023-04-10T06:44:14.198Z,19.63
2023-04-10T06:46:42.146Z,17.58
2023-04-10T06:49:09.824Z,18.90
2023-04-10T06:51:38.924Z,18.40
2023-04-10T06:54:06.560Z,17.85
2023-04-10T06:56:34.247Z,19.40
2023-04-10T06:59:01.887Z,19.00
2023-04-10T07:01:29.680Z,19.52
2023-04-10T07:04:00.945Z,16.65
2023-04-10T07:06:31.350Z,17.67
2023-04-10T07:09:00.350Z,17.63
2023-04-10T07:11:28.008Z,18.23
2023-04-10T07:13:58.398Z,17.80
2023-04-10T07:16:26.457Z,18.50
2023-04-10T07:18:54.270Z,19.92
2023-04-10T07:21:22.159Z,17.25
2023-04-10T07:23:49.767Z,18.63
2023-04-10T07:26:18.731Z,19.27
2023-04-10T07:28:46.667Z,18.35
2023-04-10T07:31:14.789Z,17.25
2023-04-10T07:33:42.620Z,18.40
2023-04-10T07:36:10.674Z,17.00
2023-04-10T07:38:38.860Z,16.88
2023-04-10T07:41:07.084Z,16.58
2023-04-10T07:43:36.308Z,17.13
2023-04-10T07:46:04.218Z,16.75
2023-04-10T07:48:32.006Z,16.90
2023-04-10T07:50:59.864Z,16.90
2023-04-10T07:53:27.586Z,17.73
2023-04-10T07:55:55.375Z,17.73
2023-04-10T07:58:23.094Z,17.75
2023-04-10T08:00:54.530Z,17.20
2023-04-10T08:03:22.897Z,16.58
2023-04-10T08:05:50.899Z,16.95
2023-04-10T08:08:18.675Z,16.52
2023-04-10T08:10:46.374Z,15.75
2023-04-10T08:13:14.017Z,16.23
2023-04-10T08:15:41.758Z,15.60
2023-04-10T08:18:10.712Z,16.05
2023-04-10T08:20:38.718Z,16.38
2023-04-10T08:25:40.646Z,16.60
2023-04-10T08:28:08.251Z,15.73
2023-04-10T08:30:36.179Z,15.02
2023-04-10T08:33:04.189Z,15.10
2023-04-10T08:35:33.196Z,14.18
2023-04-10T08:38:12.813Z,14.68
2023-04-10T08:40:41.508Z,13.55
2023-04-10T08:43:09.133Z,14.45
2023-04-10T08:45:36.829Z,14.23
2023-04-10T08:48:07.058Z,14.70
2023-04-10T08:50:42.758Z,19.27
2023-04-10T08:53:13.310Z,22.55
2023-04-10T08:55:41.808Z,38.63
2023-04-10T08:58:10.342Z,29.40
2023-04-10T09:00:39.413Z,25.63
2023-04-10T09:03:11.271Z,20.50
2023-04-10T09:05:40.572Z,19.90
2023-04-10T09:08:09.612Z,17.70
2023-04-10T09:10:37.335Z,16.27
2023-04-10T09:13:04.977Z,14.98
2023-04-10T09:15:52.842Z,15.15
2023-04-10T09:18:21.269Z,16.30
2023-04-10T09:20:51.531Z,16.55
2023-04-10T09:23:22.676Z,15.52
2023-04-10T09:25:51.231Z,17.15
2023-04-10T09:28:19.062Z,14.50
2023-04-10T09:30:47.152Z,14.40
2023-04-10T09:33:25.340Z,16.80
2023-04-10T09:35:54.848Z,12.77
2023-04-10T09:38:22.926Z,11.48
2023-04-10T09:40:51.530Z,10.27
2023-04-10T09:43:22.333Z,10.93
2023-04-10T09:45:51.892Z,10.77
2023-04-10T09:48:20.252Z,11.38
2023-04-10T09:50:48.426Z,12.38
2023-04-10T09:53:19.572Z,11.20
2023-04-10T09:55:48.369Z,11.15
2023-04-10T09:58:16.925Z,10.88
2023-04-10T10:00:45.918Z,10.13
2023-04-10T10:03:14.812Z,9.73
2023-04-10T10:05:44.747Z,9.45
2023-04-10T10:08:14.302Z,9.65
2023-04-10T10:10:46.873Z,9.02
2023-04-10T10:13:18.524Z,9.65
2023-04-10T10:15:51.450Z,9.15
2023-04-10T10:18:26.790Z,8.95
2023-04-10T10:20:55.341Z,8.85
2023-04-10T10:23:23.262Z,9.13
2023-04-10T10:25:53.601Z,8.77
2023-04-10T10:28:22.456Z,8.25
2023-04-10T10:30:51.438Z,8.23
2023-04-10T10:33:19.931Z,8.25
2023-04-10T10:35:48.040Z,7.25
2023-04-10T10:38:16.584Z,7.22
2023-04-10T10:40:49.792Z,7.22
2023-04-10T10:43:26.268Z,7.28
2023-04-10T10:46:01.818Z,7.38
2023-04-10T10:48:29.586Z,7.38
2023-04-10T10:50:59.136Z,7.15
2023-04-10T10:53:34.825Z,6.80
2023-04-10T10:56:36.439Z,6.75
2023-04-10T10:59:05.455Z,6.20
2023-04-10T11:01:33.148Z,6.13
2023-04-10T11:04:01.258Z,6.47
2023-04-10T11:06:54.637Z,5.63
2023-04-10T11:09:48.424Z,5.68
2023-04-10T11:12:16.923Z,5.22
2023-04-10T11:14:57.959Z,5.43
2023-04-10T11:17:47.780Z,5.85
2023-04-10T11:20:15.648Z,6.05
2023-04-10T11:23:13.990Z,6.20
2023-04-10T11:25:50.365Z,5.50
2023-04-10T11:28:37.801Z,5.50
2023-04-10T11:31:18.646Z,5.40
2023-04-10T11:33:46.838Z,5.70
2023-04-10T11:36:19.367Z,5.72
2023-04-10T11:38:57.754Z,5.40
2023-04-10T11:41:32.306Z,4.93
2023-04-10T11:44:00.366Z,5.43
2023-04-10T11:46:30.097Z,5.25
2023-04-10T11:49:00.241Z,5.10
2023-04-10T11:51:28.710Z,4.30
2023-04-10T11:54:07.090Z,4.60
2023-04-10T11:56:42.022Z,4.47
2023-04-10T11:59:11.201Z,4.72
2023-04-10T12:01:43.020Z,4.38
2023-04-10T12:04:17.783Z,4.97
2023-04-10T12:06:46.944Z,4.97
2023-04-10T12:09:17.874Z,4.85
2023-04-10T12:11:53.045Z,4.80
2023-04-10T12:14:21.577Z,4.90
2023-04-10T12:16:51.438Z,5.10
2023-04-10T12:19:19.530Z,4.43
2023-04-10T12:21:47.548Z,4.80
2023-04-10T12:24:42.580Z,5.13
2023-04-10T12:27:10.571Z,5.22
2023-04-10T12:29:38.187Z,4.60
2023-04-10T12:32:10.348Z,5.10
2023-04-10T12:34:38.209Z,4.22
2023-04-10T12:37:06.566Z,3.90
2023-04-10T12:39:34.421Z,3.95
2023-04-10T12:42:16.528Z,4.10
2023-04-10T12:44:54.825Z,4.85
2023-04-10T12:47:25.685Z,4.10
2023-04-10T12:50:11.037Z,3.97
2023-04-10T12:52:40.321Z,3.75
2023-04-10T12:55:15.765Z,3.58
2023-04-10T12:57:45.893Z,3.53
2023-04-10T13:00:15.923Z,3.60
2023-04-10T13:02:54.253Z,4.22
2023-04-10T13:05:22.792Z,3.35
2023-04-10T13:08:23.216Z,3.63
2023-04-10T13:10:59.659Z,5.47
2023-04-10T13:13:31.087Z,8.15
2023-04-10T13:15:58.901Z,4.90
2023-04-10T13:18:28.094Z,4.70
2023-04-10T13:20:55.759Z,4.78
2023-04-10T13:23:23.356Z,3.72
2023-04-10T13:25:51.088Z,3.60
2023-04-10T13:28:20.109Z,4.00
2023-04-10T13:30:47.806Z,4.22
2023-04-10T13:33:16.441Z,3.50
2023-04-10T13:35:45.778Z,4.13
2023-04-10T13:38:13.631Z,8.63
2023-04-10T13:40:41.284Z,9.00
2023-04-10T13:43:08.935Z,4.88
2023-04-10T13:45:36.614Z,6.68
2023-04-10T13:48:07.133Z,8.63
2023-04-10T13:50:34.961Z,6.32
2023-04-10T13:53:04.109Z,7.10
2023-04-10T13:55:31.758Z,4.90
2023-04-10T13:57:59.447Z,5.90
2023-04-10T14:00:27.746Z,10.15
2023-04-10T14:02:55.570Z,6.25
2023-04-10T14:05:23.393Z,5.47
2023-04-10T14:07:53.781Z,4.57
2023-04-10T14:10:22.928Z,5.80
2023-04-10T14:12:50.575Z,12.98
2023-04-10T14:15:18.313Z,9.45
2023-04-10T14:17:45.984Z,5.35
2023-04-10T14:20:13.907Z,5.80
2023-04-10T14:22:41.527Z,5.32
2023-04-10T14:25:13.736Z,7.38
2023-04-10T14:27:43.671Z,5.47
2023-04-10T14:30:11.883Z,4.78
2023-04-10T14:32:40.038Z,5.10
2023-04-10T14:35:08.822Z,4.10
2023-04-10T14:37:36.450Z,5.57
2023-04-10T14:40:05.636Z,7.10
2023-04-10T14:42:33.263Z,31.10
2023-04-10T14:45:02.262Z,9.02
2023-04-10T14:47:29.958Z,8.35
2023-04-10T14:49:57.706Z,7.53
2023-04-10T14:52:25.386Z,5.50
2023-04-10T14:54:53.038Z,5.15
2023-04-10T14:57:20.755Z,9.82
2023-04-10T14:59:48.350Z,11.93
2023-04-10T15:02:17.658Z,8.45
2023-04-10T15:04:45.354Z,14.63
2023-04-10T15:07:14.044Z,11.48
2023-04-10T15:09:43.040Z,7.75
2023-04-10T15:12:10.706Z,7.43
2023-04-10T15:14:38.569Z,6.78
2023-04-10T15:17:06.238Z,6.65
2023-04-10T15:19:35.456Z,5.82
2023-04-10T15:22:03.386Z,5.88
2023-04-10T15:24:36.978Z,6.60
2023-04-10T15:27:11.038Z,5.88
2023-04-10T15:29:39.770Z,5.75
2023-04-10T15:32:07.994Z,5.68
2023-04-10T15:34:37.290Z,4.75
2023-04-10T15:37:09.868Z,4.35
2023-04-10T15:39:37.673Z,3.88
2023-04-10T15:42:06.133Z,3.55
2023-04-10T15:44:34.045Z,3.92
2023-04-10T15:47:01.740Z,3.88
2023-04-10T15:49:37.095Z,3.55
2023-04-10T15:52:07.634Z,4.07
2023-04-10T15:54:35.607Z,5.90
2023-04-10T15:57:03.405Z,3.40
2023-04-10T15:59:33.854Z,4.10
2023-04-10T16:02:01.541Z,4.28
2023-04-10T16:04:29.537Z,4.35
2023-04-10T16:06:57.337Z,4.22
2023-04-10T16:09:26.944Z,3.80
2023-04-10T16:11:55.995Z,3.33
2023-04-10T16:14:23.656Z,3.60
2023-04-10T16:16:51.932Z,3.65
2023-04-10T16:19:19.607Z,3.67
2023-04-10T16:21:47.353Z,4.25
2023-04-10T16:24:15.428Z,4.13
2023-04-10T16:26:44.440Z,4.10
2023-04-10T16:29:12.134Z,4.10
2023-04-10T16:31:39.950Z,3.85
2023-04-10T16:34:07.622Z,3.58
2023-04-10T16:36:35.210Z,3.58
2023-04-10T16:39:02.805Z,3.70
2023-04-10T16:41:30.417Z,3.90
2023-04-10T16:43:59.358Z,4.13
2023-04-10T16:46:27.136Z,4.82
2023-04-10T16:48:55.192Z,4.57
2023-04-10T16:51:24.386Z,4.40
2023-04-10T16:53:52.335Z,3.80
2023-04-10T16:56:20.262Z,4.63
2023-04-10T16:58:47.902Z,4.40
2023-04-10T17:01:18.994Z,5.38
2023-04-10T17:03:47.506Z,4.70
2023-04-10T17:06:15.869Z,5.95
2023-04-10T17:08:44.010Z,5.65
2023-04-10T17:11:12.440Z,5.53
2023-04-10T17:13:40.432Z,5.20
2023-04-10T17:16:09.451Z,4.95
2023-04-10T17:18:38.453Z,6.43
2023-04-10T17:21:06.713Z,6.80
2023-04-10T17:23:34.399Z,5.35
2023-04-10T17:26:05.541Z,5.13
2023-04-10T17:28:33.523Z,5.10
2023-04-10T17:31:01.475Z,5.38
2023-04-10T17:33:29.532Z,5.25
2023-04-10T17:35:58.636Z,4.90
2023-04-10T17:38:26.470Z,5.43
2023-04-10T17:40:54.208Z,5.05
2023-04-10T17:43:22.903Z,4.95
2023-04-10T17:45:50.688Z,5.20
2023-04-10T17:48:18.660Z,4.88
2023-04-10T17:50:46.455Z,5.13
2023-04-10T17:53:15.697Z,4.75
2023-04-10T17:55:43.385Z,3.97
2023-04-10T17:58:11.183Z,4.47
2023-04-10T18:00:41.626Z,5.30
2023-04-10T18:03:09.464Z,4.75
2023-04-10T18:05:38.584Z,4.95
2023-04-10T18:08:07.853Z,5.15
2023-04-10T18:10:36.961Z,4.80
2023-04-10T18:13:04.641Z,5.05
2023-04-10T18:15:32.396Z,5.13
2023-04-10T18:18:00.256Z,4.60
2023-04-10T18:20:27.867Z,5.32
2023-04-10T18:22:55.542Z,6.32
2023-04-10T18:25:23.144Z,7.20
2023-04-10T18:28:13.182Z,5.90
2023-04-10T18:30:40.611Z,6.05
2023-04-10T18:33:11.106Z,5.57
2023-04-10T18:35:39.347Z,5.35
2023-04-10T18:38:07.535Z,5.57
2023-04-10T18:40:36.688Z,6.72
2023-04-10T18:43:06.350Z,6.10
2023-04-10T18:45:35.007Z,5.53
2023-04-10T18:48:02.673Z,5.78
2023-04-10T18:50:31.333Z,6.07
2023-04-10T18:52:58.941Z,6.13
2023-04-10T18:55:26.680Z,6.13
2023-04-10T18:57:54.358Z,6.75
2023-04-10T19:00:23.586Z,6.13
2023-04-10T19:02:51.356Z,6.65
2023-04-10T19:05:19.203Z,5.82
2023-04-10T19:07:56.575Z,6.25
2023-04-10T19:10:31.172Z,6.13
2023-04-10T19:12:58.922Z,6.05
2023-04-10T19:15:28.101Z,5.80
2023-04-10T19:17:56.206Z,5.68
2023-04-10T19:20:50.915Z,6.75
2023-04-10T19:23:11.779Z,6.05
2023-04-10T19:25:39.538Z,5.93
2023-04-10T19:28:07.486Z,5.60
2023-04-10T19:30:36.785Z,5.50
2023-04-10T19:33:04.630Z,5.90
2023-04-10T19:35:32.370Z,6.45
2023-04-10T19:38:00.261Z,6.18
2023-04-10T19:40:28.218Z,6.05
2023-04-10T19:42:58.108Z,5.90
2023-04-10T19:45:28.997Z,5.70
2023-04-10T19:47:58.545Z,5.97
2023-04-10T19:50:26.291Z,6.07
2023-04-10T19:52:53.996Z,5.53
2023-04-10T19:55:21.960Z,6.40
2023-04-10T19:57:50.517Z,6.95
2023-04-10T20:00:18.817Z,5.75
2023-04-10T20:02:46.727Z,5.75
2023-04-10T20:05:16.123Z,5.70
2023-04-10T20:07:43.898Z,5.82
2023-04-10T20:10:11.955Z,6.18
2023-04-10T20:12:39.633Z,5.97
2023-04-10T20:15:08.863Z,5.68
2023-04-10T20:17:38.396Z,5.88
2023-04-10T20:20:07.258Z,5.72
2023-04-10T20:22:36.325Z,5.95
2023-04-10T20:25:03.977Z,5.93
2023-04-10T20:27:31.702Z,5.85
2023-04-10T20:29:59.384Z,6.10
2023-04-10T20:32:27.280Z,5.15
2023-04-10T20:34:54.932Z,5.65
2023-04-10T20:37:22.847Z,6.07
2023-04-10T20:39:52.019Z,5.82
2023-04-10T20:42:19.688Z,5.40
2023-04-10T20:44:47.352Z,5.95
2023-04-10T20:47:15.101Z,5.28
2023-04-10T20:49:42.958Z,5.28
2023-04-10T20:52:10.834Z,5.13
2023-04-10T20:54:38.589Z,5.35
2023-04-10T20:57:07.650Z,5.10
2023-04-10T20:59:36.024Z,5.30
2023-04-10T21:02:04.329Z,5.18
2023-04-10T21:04:32.640Z,5.40
2023-04-10T21:07:00.376Z,5.70
2023-04-10T21:09:28.058Z,5.43
2023-04-10T21:11:55.740Z,5.72
2023-04-10T21:14:24.924Z,5.20
2023-04-10T21:16:52.723Z,5.25
2023-04-10T21:19:20.566Z,5.35
2023-04-10T21:21:48.277Z,5.03
2023-04-10T21:24:15.952Z,5.15
2023-04-10T21:26:43.665Z,5.22
2023-04-10T21:29:11.346Z,5.30
2023-04-10T21:31:40.344Z,4.53
2023-04-10T21:34:08.108Z,4.05
2023-04-10T21:36:35.723Z,3.72
2023-04-10T21:39:03.374Z,3.58
2023-04-10T21:41:30.982Z,3.58
2023-04-10T21:44:00.299Z,3.60
2023-04-10T21:46:28.216Z,3.78
2023-04-10T21:48:57.422Z,3.45
2023-04-10T21:51:26.945Z,3.25
2023-04-10T21:53:54.690Z,3.45
2023-04-10T21:56:22.388Z,3.10
2023-04-10T21:58:50.019Z,3.47
2023-04-10T22:01:17.736Z,3.00
2023-04-10T22:03:45.643Z,3.45
2023-04-10T22:06:14.946Z,3.17
2023-04-10T22:08:42.791Z,3.25
2023-04-10T22:11:10.597Z,3.15
2023-04-10T22:13:38.509Z,3.53
2023-04-10T22:16:06.754Z,3.67
2023-04-10T22:18:34.430Z,3.45
2023-04-10T22:21:02.324Z,3.55
2023-04-10T22:23:32.097Z,3.50
2023-04-10T22:26:00.718Z,3.85
2023-04-10T22:28:28.739Z,3.97
2023-04-10T22:30:56.394Z,3.47
2023-04-10T22:33:24.060Z,3.92
2023-04-10T22:35:53.492Z,4.40
2023-04-10T22:38:21.250Z,4.70
2023-04-10T22:40:50.317Z,4.45
2023-04-10T22:43:17.985Z,4.72
2023-04-10T22:45:45.698Z,4.38
2023-04-10T22:48:13.354Z,4.80
2023-04-10T22:50:41.163Z,4.90
2023-04-10T22:53:10.308Z,5.35
2023-04-10T22:55:38.415Z,4.63
2023-04-10T22:58:07.734Z,4.78
2023-04-10T23:00:35.972Z,4.15
2023-04-10T23:03:03.720Z,4.25
2023-04-10T23:05:32.999Z,3.95
2023-04-10T23:08:00.779Z,4.70
2023-04-10T23:10:28.434Z,3.95
2023-04-10T23:12:56.061Z,4.30
2023-04-10T23:15:25.125Z,4.78
2023-04-10T23:17:52.887Z,4.07
2023-04-10T23:20:20.862Z,4.28
2023-04-10T23:22:48.532Z,3.90
2023-04-10T23:25:16.294Z,4.20
2023-04-10T23:27:43.952Z,4.55
2023-04-10T23:30:12.164Z,4.32
2023-04-10T23:32:41.258Z,4.15
2023-04-10T23:35:09.702Z,4.47
2023-04-10T23:37:37.337Z,4.10
2023-04-10T23:40:05.746Z,3.58
2023-04-10T23:42:33.351Z,3.85
2023-04-10T23:45:00.942Z,3.33
2023-04-10T23:47:28.600Z,3.60
2023-04-10T23:49:57.692Z,3.20
2023-04-10T23:52:25.552Z,3.38
2023-04-10T23:54:53.252Z,3.00
2023-04-10T23:57:20.851Z,3.50
2023-04-10T23:59:48.548Z,3.20
